x

Venice, Fl (venf1) Weather Station

9:00pm - Fri 28th Apr 2017 All times are EDT. -4 hours from GMT.

  • Wind
    11mph, 14mph gusts
  • Sea Temp 81°f
  • Air Temp 80°f
  • Sea Pressure 1017.1mb
  • Venice, Fl
  • Venice, Fl

More Historic Weather Station data

Upgrade to MSW Pro to gain access to the past 30 days of data for over 8000 Wavebouys and Weather Stations around the globe.

Join Pro

Comparision Forecast

View Surf forecast
   
Fri 04/28 9:00pm 11 14 mph 1017.1mb 81f 80f
8:00pm 9
mph
1016.2mb 81f 80f
7:00pm 11 13 mph 1015.8mb 81f 80f
6:00pm 11 14 mph 1015.6mb 81f 80f
5:00pm 15 17 mph 1015.3mb 81f 81f
4:00pm 17 20 mph 1015.7mb 81f 81f
3:00pm 14
mph
1016.5mb 81f 82f
2:00pm 11 13 mph 1017mb 80f 82f
1:00pm 15 16 mph 1017.4mb 80f 81f
12:00pm 14 15 mph 1017.7mb 79f 81f
11:00am 13 14 mph 1017.7mb 78f 80f
10:00am 13 15 mph 1017.3mb 78f 78f
9:00am 7 9 mph 1017.2mb 78f 74f
8:00am 9 11 mph 1016.7mb 78f 72f
7:00am 8 9 mph 1016mb 78f 71f
6:00am 8 9 mph 1014.9mb 78f 71f
5:00am 7
mph
1014.5mb 78f 73f
4:00am 6 8 mph 1014.5mb 79f 74f
3:00am 5 7 mph 1014.1mb 79f 74f
2:00am 6 7 mph 1014.2mb 79f 74f
1:00am 3 5 mph 1014.3mb 79f 75f
12:00am 8 9 mph 1013.9mb 79f 77f
Thu 04/27 11:00pm 3 5 mph 1014.1mb 79f 77f
10:00pm 5 7 mph 1013.9mb 79f 77f
9:00pm 5 6 mph 1013.1mb 79f 77f
8:00pm 6 7 mph 1012.6mb 80f 78f
7:00pm 6 7 mph 1012.3mb 80f 79f
6:00pm 9 10 mph 1012.1mb 80f 79f
5:00pm 14 16 mph 1011.6mb 80f 78f
4:00pm 13 15 mph 1012.4mb 80f 79f
3:00pm 11 13 mph 1013.4mb 79f 79f
2:00pm 15 16 mph 1013.6mb 79f 79f
1:00pm 13
mph
1014.3mb 78f 79f
12:00pm 11 13 mph 1014.4mb 78f 78f
11:00am 13
mph
1014.6mb 77f 77f
10:00am 15 17 mph 1014.1mb 77f 77f
9:00am 9 11 mph 1013.4mb 77f 74f
8:00am 7 9 mph 1013mb 77f 73f
6:00am 7 8 mph 1011.6mb 77f 71f
5:00am 7 8 mph 1011.3mb 77f 71f
4:00am 7 10 mph 1011.3mb 77f 72f
3:00am 9 11 mph 1011.5mb 77f 73f
2:00am 5 6 mph 1011.9mb 77f 73f
1:00am 5 6 mph 1012.3mb 77f 74f
12:00am 9 11 mph 1012.4mb 78f 77f
Wed 04/26 11:00pm 7 8 mph 1012.3mb 78f 77f
10:00pm 8
mph
1012mb 78f 76f
9:00pm 8 9 mph 1011.5mb 78f 77f
8:00pm 10
mph
1010.9mb 78f 77f
7:00pm 10 11 mph 1010.5mb 78f 77f
6:00pm 11 13 mph 1010.4mb 78f 77f
5:00pm 11 13 mph 1010.5mb 78f 77f
4:00pm 9 11 mph 1010.7mb 78f 77f
3:00pm 10 11 mph 1011.4mb 77f 77f
2:00pm 10 11 mph 1012mb 76f 76f
1:00pm 13 15 mph 1012.2mb 76f 75f
12:00pm 14 15 mph 1012.6mb 76f 74f
11:00am 14 16 mph 1012.3mb 75f 74f
10:00am 7 8 mph 1012.1mb 75f 74f
9:00am 10 13 mph 1012.1mb 75f 72f
8:00am 7 8 mph 1011.7mb 75f 69f
7:00am 7 8 mph 1011.1mb 75f 68f
6:00am 7 8 mph 1010.7mb 75f 67f
5:00am 6
mph
1010.4mb 75f 70f
4:00am 6 8 mph 1010.3mb 75f 73f
3:00am 5 6 mph 1010.8mb 75f 73f
2:00am 9 14 mph 1011.5mb 76f 73f
1:00am 9 11 mph 1011.5mb 76f 73f
12:00am 11
mph
1011.6mb 76f 72f
Tue 04/25 11:00pm 5 6 mph 1011.5mb 76f 72f
10:00pm 5 6 mph 1011.1mb 76f 72f
9:00pm 6 7 mph 1010.5mb 77f 72f
8:00pm 7 8 mph 1010.3mb 77f 73f
7:00pm 8 9 mph 1010.2mb 78f 73f
6:00pm 11 13 mph 1010.2mb 78f 73f
5:00pm 9 11 mph 1010.3mb 78f 73f
4:00pm 9 10 mph 1010.6mb 77f 73f
3:00pm 5 7 mph 1011.1mb 77f 73f
2:00pm 7 8 mph 1011.8mb 76f 72f
1:00pm 9 11 mph 1012mb 76f 71f
12:00pm 13 15 mph 1012.2mb 76f 71f
11:00am 13 15 mph 1012.2mb 75f 71f
10:00am 11 14 mph 1011.7mb 75f 71f
9:00am 17 20 mph 1011.1mb 75f 70f
8:00am 17 20 mph 1010.4mb 75f 70f
7:00am 16 18 mph 1009.6mb 75f 69f
6:00am 15 21 mph 1008.7mb 75f 70f
5:00am 21 23 mph 1008.7mb 75f 70f
4:00am 18 21 mph 1008.4mb 75f 70f
3:00am 17 20 mph 1008.4mb 76f 71f